createdAt,value
2022-09-18T00:01:01.971Z,0.60
2022-09-18T00:03:28.896Z,0.80
2022-09-18T00:05:55.537Z,0.70
2022-09-18T00:08:22.343Z,0.63
2022-09-18T00:10:48.947Z,0.70
2022-09-18T00:13:15.876Z,0.70
2022-09-18T00:15:42.584Z,0.77
2022-09-18T00:18:09.667Z,0.60
2022-09-18T00:20:37.807Z,0.70
2022-09-18T00:23:04.807Z,0.70
2022-09-18T00:25:32.296Z,0.70
2022-09-18T00:27:59.283Z,0.63
2022-09-18T00:30:25.892Z,0.80
2022-09-18T00:32:52.520Z,0.70
2022-09-18T00:35:19.140Z,0.70
2022-09-18T00:37:45.779Z,0.83
2022-09-18T00:40:12.460Z,0.70
2022-09-18T00:42:39.106Z,0.70
2022-09-18T00:45:06.415Z,0.93
2022-09-18T00:47:38.573Z,0.70
2022-09-18T00:50:13.175Z,0.70
2022-09-18T00:52:48.977Z,1.00
2022-09-18T00:55:17.448Z,0.80
2022-09-18T00:57:50.881Z,2.00
2022-09-18T01:00:17.648Z,1.13
2022-09-18T01:02:47.571Z,1.23
2022-09-18T01:05:19.137Z,1.37
2022-09-18T01:08:18.223Z,1.90
2022-09-18T01:11:05.226Z,1.70
2022-09-18T01:13:52.662Z,1.50
2022-09-18T01:16:38.798Z,1.63
2022-09-18T01:19:17.897Z,1.67
2022-09-18T01:22:02.778Z,1.60
2022-09-18T01:24:45.221Z,1.73
2022-09-18T01:27:41.183Z,1.40
2022-09-18T01:30:11.157Z,1.50
2022-09-18T01:32:47.558Z,1.33
2022-09-18T01:35:40.993Z,1.30
2022-09-18T01:38:14.270Z,1.30
2022-09-18T01:40:46.863Z,1.20
2022-09-18T01:43:17.019Z,1.20
2022-09-18T01:45:47.561Z,1.30
2022-09-18T01:48:25.079Z,1.10
2022-09-18T01:50:56.390Z,1.50
2022-09-18T01:53:30.394Z,1.37
2022-09-18T01:56:01.709Z,1.20
2022-09-18T01:58:29.704Z,1.20
2022-09-18T02:01:00.504Z,1.20
2022-09-18T02:03:33.097Z,0.97
2022-09-18T02:06:06.750Z,1.03
2022-09-18T02:08:50.524Z,1.00
2022-09-18T02:11:19.086Z,0.93
2022-09-18T02:13:58.936Z,1.07
2022-09-18T02:16:48.743Z,0.80
2022-09-18T02:19:25.075Z,1.20
2022-09-18T02:21:54.415Z,0.80
2022-09-18T02:24:28.541Z,0.70
2022-09-18T02:26:56.964Z,0.73
2022-09-18T02:29:25.287Z,0.90
2022-09-18T02:31:52.502Z,0.63
2022-09-18T02:34:20.090Z,0.70
2022-09-18T02:37:11.626Z,1.00
2022-09-18T02:39:45.536Z,0.60
2022-09-18T02:42:30.721Z,0.87
2022-09-18T02:45:22.678Z,0.77
2022-09-18T02:48:09.445Z,0.67
2022-09-18T02:50:53.613Z,0.50
2022-09-18T02:53:31.490Z,0.70
2022-09-18T02:56:04.211Z,0.80
2022-09-18T02:58:40.475Z,0.57
2022-09-18T03:01:08.992Z,0.50
2022-09-18T03:03:38.795Z,0.73
2022-09-18T03:06:08.559Z,0.50
2022-09-18T03:08:35.331Z,0.50
2022-09-18T03:11:01.963Z,0.60
2022-09-18T03:13:28.591Z,0.60
2022-09-18T03:15:56.083Z,0.73
2022-09-18T03:18:23.117Z,0.70
2022-09-18T03:20:49.717Z,0.53
2022-09-18T03:23:16.338Z,0.73
2022-09-18T03:25:42.931Z,0.73
2022-09-18T03:28:09.598Z,0.70
2022-09-18T03:30:36.756Z,0.60
2022-09-18T03:33:03.571Z,0.70
2022-09-18T03:35:30.277Z,0.60
2022-09-18T03:37:56.886Z,0.73
2022-09-18T03:40:23.545Z,0.60
2022-09-18T03:42:50.878Z,0.50
2022-09-18T03:45:17.917Z,0.60
2022-09-18T03:47:44.832Z,0.60
2022-09-18T03:50:11.446Z,0.53
2022-09-18T03:52:38.051Z,0.90
2022-09-18T03:55:04.982Z,0.70
2022-09-18T03:57:31.565Z,0.80
2022-09-18T03:59:58.343Z,0.80
2022-09-18T04:02:24.959Z,0.50
2022-09-18T04:04:51.959Z,0.57
2022-09-18T04:07:18.526Z,0.73
2022-09-18T04:09:45.247Z,0.70
2022-09-18T04:12:11.974Z,0.60
2022-09-18T04:14:38.725Z,0.80
2022-09-18T04:17:05.362Z,0.67
2022-09-18T04:19:31.945Z,0.70
2022-09-18T04:21:58.579Z,0.83
2022-09-18T04:24:25.158Z,0.70
2022-09-18T04:26:51.757Z,0.97
2022-09-18T04:29:18.379Z,0.70
2022-09-18T04:31:44.986Z,0.70
2022-09-18T04:34:11.623Z,0.90
2022-09-18T04:36:38.268Z,0.90
2022-09-18T04:39:04.853Z,0.90
2022-09-18T04:41:31.455Z,1.13
2022-09-18T04:44:00.394Z,1.00
2022-09-18T04:46:27.025Z,0.83
2022-09-18T04:48:54.206Z,0.87
2022-09-18T04:51:20.821Z,0.80
2022-09-18T04:53:47.415Z,0.90
2022-09-18T04:56:14.003Z,0.80
2022-09-18T04:58:40.594Z,0.93
2022-09-18T05:01:07.358Z,0.83
2022-09-18T05:03:34.247Z,1.00
2022-09-18T05:06:00.825Z,0.73
2022-09-18T05:08:28.903Z,0.90
2022-09-18T05:10:55.950Z,0.73
2022-09-18T05:13:22.631Z,0.70
2022-09-18T05:15:49.255Z,1.00
2022-09-18T05:18:15.898Z,1.07
2022-09-18T05:20:42.478Z,0.87
2022-09-18T05:23:09.095Z,0.90
2022-09-18T05:25:35.751Z,0.80
2022-09-18T05:28:03.830Z,0.90
2022-09-18T05:30:31.563Z,0.80
2022-09-18T05:33:00.783Z,1.00
2022-09-18T05:35:29.674Z,1.00
2022-09-18T05:37:57.224Z,0.70
2022-09-18T05:40:26.316Z,0.90
2022-09-18T05:42:53.260Z,0.97
2022-09-18T05:45:20.949Z,0.60
2022-09-18T05:47:59.374Z,0.90
2022-09-18T05:50:28.393Z,0.90
2022-09-18T05:52:58.942Z,1.13
2022-09-18T05:55:25.816Z,1.07
2022-09-18T05:57:54.049Z,0.83
2022-09-18T06:00:20.658Z,0.80
2022-09-18T06:02:54.503Z,1.10
2022-09-18T06:05:21.386Z,0.80
2022-09-18T06:07:48.078Z,0.80
2022-09-18T06:10:15.075Z,0.83
2022-09-18T06:12:41.712Z,0.90
2022-09-18T06:15:09.142Z,0.80
2022-09-18T06:17:35.717Z,0.83
2022-09-18T06:20:03.417Z,0.93
2022-09-18T06:22:31.700Z,1.13
2022-09-18T06:24:58.461Z,1.30
2022-09-18T06:27:25.071Z,1.27
2022-09-18T06:29:52.162Z,1.50
2022-09-18T06:32:20.315Z,1.20
2022-09-18T06:34:47.848Z,1.17
2022-09-18T06:37:15.195Z,1.30
2022-09-18T06:39:42.076Z,1.60
2022-09-18T06:42:08.775Z,1.30
2022-09-18T06:44:35.354Z,1.40
2022-09-18T06:47:02.359Z,1.47
2022-09-18T06:49:28.956Z,1.33
2022-09-18T06:51:55.770Z,1.53
2022-09-18T06:54:22.344Z,1.20
2022-09-18T06:56:49.449Z,1.40
2022-09-18T06:59:16.036Z,1.57
2022-09-18T07:01:42.706Z,1.40
2022-09-18T07:04:09.350Z,1.30
2022-09-18T07:06:35.922Z,1.50
2022-09-18T07:09:02.785Z,1.20
2022-09-18T07:11:29.452Z,1.10
2022-09-18T07:13:56.054Z,1.30
2022-09-18T07:16:22.787Z,1.27
2022-09-18T07:18:49.475Z,1.40
2022-09-18T07:21:16.043Z,1.10
2022-09-18T07:23:42.957Z,1.00
2022-09-18T07:26:09.800Z,1.40
2022-09-18T07:28:37.118Z,1.33
2022-09-18T07:31:05.346Z,1.40
2022-09-18T07:33:32.767Z,1.03
2022-09-18T07:36:00.862Z,0.83
2022-09-18T07:38:27.553Z,1.00
2022-09-18T07:40:54.540Z,0.97
2022-09-18T07:43:21.168Z,1.07
2022-09-18T07:45:47.758Z,1.00
2022-09-18T07:48:14.584Z,1.00
2022-09-18T07:50:41.315Z,0.77
2022-09-18T07:53:09.046Z,0.90
2022-09-18T07:55:36.862Z,1.20
2022-09-18T07:58:06.539Z,1.20
2022-09-18T08:00:35.970Z,1.20
2022-09-18T08:03:07.964Z,1.20
2022-09-18T08:05:35.127Z,1.30
2022-09-18T08:08:05.964Z,1.10
2022-09-18T08:10:34.348Z,1.20
2022-09-18T08:13:02.704Z,1.20
2022-09-18T08:15:34.109Z,1.20
2022-09-18T08:18:01.239Z,1.10
2022-09-18T08:20:28.010Z,1.20
2022-09-18T08:22:54.667Z,1.10
2022-09-18T08:25:21.520Z,1.00
2022-09-18T08:27:48.137Z,1.07
2022-09-18T08:30:17.534Z,0.73
2022-09-18T08:32:44.184Z,0.83
2022-09-18T08:35:11.235Z,0.80
2022-09-18T08:37:38.108Z,0.80
2022-09-18T08:40:05.658Z,0.83
2022-09-18T08:42:54.022Z,0.70
2022-09-18T08:45:52.745Z,0.97
2022-09-18T08:48:25.414Z,1.03
2022-09-18T08:51:01.291Z,0.80
2022-09-18T08:53:42.401Z,0.80
2022-09-18T08:56:18.830Z,0.80
2022-09-18T08:59:01.006Z,0.90
2022-09-18T09:01:42.774Z,0.80
2022-09-18T09:04:25.176Z,0.70
2022-09-18T09:07:28.914Z,0.80
2022-09-18T09:10:24.186Z,0.70
2022-09-18T09:13:18.882Z,0.77
2022-09-18T09:16:01.891Z,0.70
2022-09-18T09:19:01.863Z,0.70
2022-09-18T09:21:44.470Z,0.73
2022-09-18T09:24:35.791Z,0.67
2022-09-18T09:27:16.791Z,0.70
2022-09-18T09:29:45.866Z,0.57
2022-09-18T09:32:25.813Z,0.53
2022-09-18T09:35:05.092Z,0.70
2022-09-18T09:37:45.323Z,0.70
2022-09-18T09:40:28.587Z,0.70
2022-09-18T09:43:04.912Z,0.70
2022-09-18T09:45:52.001Z,0.40
2022-09-18T09:48:34.008Z,0.47
2022-09-18T09:51:17.579Z,0.50
2022-09-18T09:53:44.972Z,0.43
2022-09-18T09:56:17.582Z,0.60
2022-09-18T09:58:47.031Z,0.40
2022-09-18T10:01:22.358Z,0.30
2022-09-18T10:04:01.273Z,0.40
2022-09-18T10:06:38.023Z,0.60
2022-09-18T10:09:16.710Z,0.50
2022-09-18T10:11:57.254Z,0.50
2022-09-18T10:14:27.986Z,0.37
2022-09-18T10:16:57.359Z,0.40
2022-09-18T10:19:29.599Z,0.40
2022-09-18T10:21:56.630Z,0.40
2022-09-18T10:24:33.962Z,0.30
2022-09-18T10:27:06.226Z,0.30
2022-09-18T10:29:35.902Z,0.30
2022-09-18T10:32:04.494Z,0.53
2022-09-18T10:34:36.968Z,0.30
2022-09-18T10:37:04.041Z,0.30
2022-09-18T10:39:33.659Z,0.40
2022-09-18T10:42:05.949Z,0.30
2022-09-18T10:44:37.708Z,0.30
2022-09-18T10:47:19.748Z,0.30
2022-09-18T10:49:59.275Z,0.20
2022-09-18T10:52:43.307Z,0.30
2022-09-18T10:55:18.205Z,0.20
2022-09-18T10:57:55.502Z,0.10
2022-09-18T11:00:22.168Z,0.30
2022-09-18T11:02:55.938Z,0.30
2022-09-18T11:05:46.779Z,0.30
2022-09-18T11:08:16.269Z,0.20
2022-09-18T11:10:48.693Z,0.23
2022-09-18T11:13:25.473Z,0.33
2022-09-18T11:15:56.240Z,0.13
2022-09-18T11:18:25.936Z,0.20
2022-09-18T11:20:55.596Z,0.20
2022-09-18T11:23:27.858Z,0.30
2022-09-18T11:26:16.218Z,0.20
2022-09-18T11:28:43.511Z,0.33
2022-09-18T11:31:19.522Z,0.20
2022-09-18T11:33:54.075Z,0.20
2022-09-18T11:36:27.449Z,0.30
2022-09-18T11:38:56.861Z,0.23
2022-09-18T11:41:26.392Z,0.30
2022-09-18T11:44:01.889Z,0.20
2022-09-18T11:47:02.285Z,0.20
2022-09-18T11:49:48.724Z,0.20
2022-09-18T11:52:33.089Z,0.20
2022-09-18T11:55:09.332Z,0.23
2022-09-18T11:57:39.315Z,0.30
2022-09-18T12:00:15.017Z,0.30
2022-09-18T12:02:56.971Z,0.20
2022-09-18T12:05:30.608Z,0.30
2022-09-18T12:08:32.327Z,0.40
2022-09-18T12:11:35.844Z,0.63
2022-09-18T12:14:08.130Z,0.90
2022-09-18T12:17:00.278Z,0.93
2022-09-18T12:19:49.384Z,0.47
2022-09-18T12:22:21.686Z,0.87
2022-09-18T12:24:49.446Z,0.20
2022-09-18T12:28:00.291Z,0.20
2022-09-18T12:30:40.954Z,0.57
2022-09-18T12:33:22.031Z,0.40
2022-09-18T12:36:03.922Z,0.20
2022-09-18T12:38:59.192Z,0.40
2022-09-18T12:41:53.299Z,0.20
2022-09-18T12:44:42.740Z,0.20
2022-09-18T12:47:24.198Z,0.20
2022-09-18T12:50:16.667Z,0.30
2022-09-18T12:53:08.189Z,0.20
2022-09-18T12:55:54.939Z,0.20
2022-09-18T12:58:56.414Z,0.30
2022-09-18T13:01:46.931Z,0.30
2022-09-18T13:04:27.368Z,0.20
2022-09-18T13:07:04.158Z,0.20
2022-09-18T13:09:41.410Z,0.27
2022-09-18T13:12:18.233Z,0.20
2022-09-18T13:14:52.998Z,0.10
2022-09-18T13:17:30.247Z,0.30
2022-09-18T13:20:01.463Z,0.20
2022-09-18T13:22:35.467Z,0.20
2022-09-18T13:25:05.119Z,0.30
2022-09-18T13:27:32.861Z,0.40
2022-09-18T13:30:12.921Z,0.30
2022-09-18T13:32:41.393Z,0.30
2022-09-18T13:35:13.940Z,0.27
2022-09-18T13:37:42.227Z,0.30
2022-09-18T13:40:44.509Z,0.50
2022-09-18T13:43:20.369Z,0.30
2022-09-18T13:45:47.385Z,0.20
2022-09-18T13:48:18.996Z,0.40
2022-09-18T13:50:56.196Z,0.50
2022-09-18T13:53:36.098Z,0.40
2022-09-18T13:56:04.392Z,0.30
2022-09-18T13:58:30.916Z,0.40
2022-09-18T14:00:58.840Z,0.40
2022-09-18T14:03:27.792Z,0.40
2022-09-18T14:05:55.122Z,0.30
2022-09-18T14:08:22.456Z,0.17
2022-09-18T14:11:05.351Z,0.27
2022-09-18T14:13:41.854Z,0.20
2022-09-18T14:16:27.056Z,0.40
2022-09-18T14:19:04.561Z,0.10
2022-09-18T14:21:39.067Z,0.40
2022-09-18T14:24:25.386Z,0.27
2022-09-18T14:27:30.390Z,0.30
2022-09-18T14:30:02.084Z,0.40
2022-09-18T14:32:29.405Z,0.40
2022-09-18T14:35:19.394Z,0.20
2022-09-18T14:37:46.534Z,0.20
2022-09-18T14:40:24.877Z,0.30
2022-09-18T14:42:51.791Z,1.00
2022-09-18T14:45:29.914Z,1.00
2022-09-18T14:47:58.017Z,0.20
2022-09-18T14:50:36.822Z,0.20
2022-09-18T14:53:25.983Z,0.30
2022-09-18T14:56:05.821Z,0.30
2022-09-18T14:58:36.693Z,0.20
2022-09-18T15:01:07.046Z,0.30
2022-09-18T15:03:38.765Z,0.30
2022-09-18T15:06:10.080Z,0.20
2022-09-18T15:08:37.835Z,0.23
2022-09-18T15:11:05.231Z,0.20
2022-09-18T15:13:37.769Z,0.20
2022-09-18T15:16:04.942Z,0.30
2022-09-18T15:18:42.497Z,0.30
2022-09-18T15:21:24.520Z,0.40
2022-09-18T15:23:51.697Z,0.30
2022-09-18T15:26:20.237Z,0.30
2022-09-18T15:28:50.404Z,0.30
2022-09-18T15:31:19.434Z,0.30
2022-09-18T15:33:54.885Z,0.30
2022-09-18T15:36:32.003Z,0.23
2022-09-18T15:39:00.209Z,0.23
2022-09-18T15:41:41.759Z,0.30
2022-09-18T15:44:30.315Z,0.20
2022-09-18T15:46:57.103Z,0.37
2022-09-18T15:49:29.238Z,0.20
2022-09-18T15:51:58.917Z,0.20
2022-09-18T15:54:27.346Z,0.50
2022-09-18T15:56:57.078Z,0.30
2022-09-18T15:59:32.594Z,0.20
2022-09-18T16:02:07.512Z,0.27
2022-09-18T16:04:35.933Z,0.23
2022-09-18T16:07:08.152Z,0.20
2022-09-18T16:09:49.269Z,0.30
2022-09-18T16:12:31.018Z,0.40
2022-09-18T16:15:11.170Z,0.30
2022-09-18T16:18:12.350Z,0.40
2022-09-18T16:20:41.062Z,1.37
2022-09-18T16:23:30.813Z,0.50
2022-09-18T16:26:18.250Z,0.80
2022-09-18T16:28:47.625Z,0.80
2022-09-18T16:31:17.403Z,0.67
2022-09-18T16:33:57.395Z,0.90
2022-09-18T16:36:34.336Z,0.70
2022-09-18T16:39:04.008Z,0.60
2022-09-18T16:41:31.721Z,0.40
2022-09-18T16:43:58.350Z,0.40
2022-09-18T16:46:30.256Z,0.50
2022-09-18T16:48:57.459Z,1.03
2022-09-18T16:51:24.099Z,0.60
2022-09-18T16:53:52.982Z,0.40
2022-09-18T16:56:27.178Z,0.40
2022-09-18T16:58:56.039Z,0.50
2022-09-18T17:01:23.286Z,0.50
2022-09-18T17:03:51.103Z,0.80
2022-09-18T17:06:19.083Z,0.50
2022-09-18T17:08:46.907Z,0.60
2022-09-18T17:11:14.024Z,0.40
2022-09-18T17:13:48.250Z,0.57
2022-09-18T17:16:30.347Z,0.60
2022-09-18T17:19:01.579Z,0.30
2022-09-18T17:21:28.986Z,0.40
2022-09-18T17:23:56.845Z,0.47
2022-09-18T17:26:23.771Z,0.40
2022-09-18T17:28:50.378Z,0.50
2022-09-18T17:31:18.687Z,0.40
2022-09-18T17:33:46.762Z,0.60
2022-09-18T17:36:16.314Z,0.30
2022-09-18T17:38:46.233Z,0.50
2022-09-18T17:41:14.930Z,0.60
2022-09-18T17:43:42.374Z,0.50
2022-09-18T17:46:11.631Z,0.40
2022-09-18T17:48:39.149Z,0.80
2022-09-18T17:51:12.038Z,0.60
2022-09-18T17:53:40.457Z,0.70
2022-09-18T17:56:10.474Z,0.80
2022-09-18T17:58:40.622Z,0.70
2022-09-18T18:01:12.612Z,0.60
2022-09-18T18:03:39.483Z,0.60
2022-09-18T18:06:06.323Z,0.60
2022-09-18T18:08:38.878Z,0.60
2022-09-18T18:11:14.966Z,0.50
2022-09-18T18:13:47.647Z,0.40
2022-09-18T18:16:25.895Z,0.57
2022-09-18T18:18:57.938Z,0.50
2022-09-18T18:21:25.778Z,0.40
2022-09-18T18:24:00.771Z,0.50
2022-09-18T18:26:31.189Z,0.47
2022-09-18T18:28:57.774Z,0.50
2022-09-18T18:31:25.711Z,0.60
2022-09-18T18:33:54.509Z,0.40
2022-09-18T18:36:24.352Z,0.50
2022-09-18T18:38:52.334Z,0.70
2022-09-18T18:41:22.226Z,0.70
2022-09-18T18:43:57.860Z,1.50
2022-09-18T18:46:27.234Z,0.60
2022-09-18T18:49:01.871Z,0.60
2022-09-18T18:51:37.228Z,0.60
2022-09-18T18:54:04.959Z,0.60
2022-09-18T18:56:34.407Z,0.63
2022-09-18T18:59:02.980Z,0.60
2022-09-18T19:01:31.124Z,0.60
2022-09-18T19:04:00.583Z,0.60
2022-09-18T19:06:28.271Z,0.60
2022-09-18T19:09:00.470Z,0.60
2022-09-18T19:11:30.077Z,0.60
2022-09-18T19:13:57.259Z,0.77
2022-09-18T19:16:25.849Z,0.63
2022-09-18T19:18:54.363Z,0.60
2022-09-18T19:21:22.391Z,0.70
2022-09-18T19:23:52.218Z,0.50
2022-09-18T19:26:24.125Z,0.57
2022-09-18T19:29:04.769Z,0.60
2022-09-18T19:31:34.144Z,0.70
2022-09-18T19:34:00.853Z,0.60
2022-09-18T19:36:29.315Z,0.60
2022-09-18T19:38:58.424Z,0.50
2022-09-18T19:41:49.851Z,0.43
2022-09-18T19:44:41.821Z,0.60
2022-09-18T19:47:23.109Z,0.60
2022-09-18T19:49:53.359Z,0.53
2022-09-18T19:52:23.126Z,0.60
2022-09-18T19:54:52.348Z,0.50
2022-09-18T19:57:21.634Z,0.50
2022-09-18T19:59:50.135Z,0.60
2022-09-18T20:02:20.036Z,0.60
2022-09-18T20:04:46.878Z,0.60
2022-09-18T20:07:14.449Z,0.70
2022-09-18T20:09:43.312Z,0.50
2022-09-18T20:12:10.300Z,0.53
2022-09-18T20:14:36.964Z,0.50
2022-09-18T20:17:03.926Z,0.60
2022-09-18T20:19:30.617Z,0.53
2022-09-18T20:21:57.224Z,0.60
2022-09-18T20:24:23.863Z,0.50
2022-09-18T20:26:51.541Z,0.50
2022-09-18T20:29:18.263Z,0.67
2022-09-18T20:31:46.020Z,0.60
2022-09-18T20:34:13.879Z,0.60
2022-09-18T20:36:40.462Z,0.50
2022-09-18T20:39:07.252Z,0.60
2022-09-18T20:41:33.897Z,0.60
2022-09-18T20:44:01.195Z,0.80
2022-09-18T20:46:27.892Z,0.50
2022-09-18T20:48:55.269Z,0.57
2022-09-18T20:51:40.058Z,0.50
2022-09-18T20:54:08.330Z,0.80
2022-09-18T20:56:43.325Z,0.60
2022-09-18T20:59:16.661Z,0.40
2022-09-18T21:01:45.359Z,0.60
2022-09-18T21:04:17.405Z,0.80
2022-09-18T21:06:46.848Z,0.63
2022-09-18T21:09:13.635Z,0.60
2022-09-18T21:11:43.440Z,0.43
2022-09-18T21:14:12.549Z,0.60
2022-09-18T21:16:43.569Z,0.50
2022-09-18T21:19:15.889Z,0.50
2022-09-18T21:21:42.901Z,0.50
2022-09-18T21:24:10.217Z,0.50
2022-09-18T21:26:39.542Z,0.40
2022-09-18T21:29:14.931Z,0.40
2022-09-18T21:31:42.928Z,0.53
2022-09-18T21:34:14.848Z,0.47
2022-09-18T21:36:44.497Z,0.30
2022-09-18T21:39:13.014Z,0.50
2022-09-18T21:41:40.096Z,0.40
2022-09-18T21:44:12.507Z,0.40
2022-09-18T21:46:39.634Z,0.40
2022-09-18T21:49:08.044Z,0.40
2022-09-18T21:51:40.158Z,0.33
2022-09-18T21:54:14.262Z,0.57
2022-09-18T21:56:45.709Z,0.50
2022-09-18T21:59:12.858Z,0.40
2022-09-18T22:01:41.745Z,0.40
2022-09-18T22:04:12.447Z,0.30
2022-09-18T22:06:42.785Z,0.30
2022-09-18T22:09:15.050Z,0.40
2022-09-18T22:11:45.191Z,0.30
2022-09-18T22:14:18.533Z,0.43
2022-09-18T22:16:48.327Z,0.47
2022-09-18T22:19:19.950Z,0.37
2022-09-18T22:21:51.642Z,0.60
2022-09-18T22:24:21.685Z,0.40
2022-09-18T22:27:00.316Z,0.60
2022-09-18T22:29:31.914Z,0.50
2022-09-18T22:32:02.220Z,0.40
2022-09-18T22:34:33.690Z,0.50
2022-09-18T22:37:01.297Z,0.40
2022-09-18T22:39:31.729Z,0.30
2022-09-18T22:41:58.717Z,0.30
2022-09-18T22:44:28.058Z,0.40
2022-09-18T22:46:54.940Z,0.37
2022-09-18T22:49:25.730Z,0.50
2022-09-18T22:51:52.490Z,0.40
2022-09-18T22:54:24.695Z,0.30
2022-09-18T22:56:54.421Z,0.40
2022-09-18T22:59:24.806Z,0.30
2022-09-18T23:01:53.831Z,0.30
2022-09-18T23:04:23.510Z,0.50
2022-09-18T23:06:52.516Z,0.30
2022-09-18T23:09:20.045Z,0.50
2022-09-18T23:11:48.634Z,0.50
2022-09-18T23:14:18.659Z,0.57
2022-09-18T23:16:46.023Z,0.40
2022-09-18T23:19:22.641Z,0.50
2022-09-18T23:21:50.174Z,0.40
2022-09-18T23:24:20.215Z,0.40
2022-09-18T23:26:51.396Z,0.50
2022-09-18T23:29:28.769Z,0.40
2022-09-18T23:32:01.749Z,0.40
2022-09-18T23:34:43.542Z,0.60
2022-09-18T23:37:10.174Z,0.50
2022-09-18T23:39:36.828Z,0.43
2022-09-18T23:42:05.807Z,0.50
2022-09-18T23:44:33.175Z,0.40
2022-09-18T23:47:00.949Z,0.70
2022-09-18T23:49:28.184Z,0.50
2022-09-18T23:51:57.640Z,0.47
2022-09-18T23:54:30.145Z,0.43
2022-09-18T23:56:57.226Z,0.50
2022-09-18T23:59:27.635Z,0.50
